createdAt,value
2018-02-12T00:01:37.828Z,76.50
2018-02-12T00:04:06.053Z,76.70
2018-02-12T00:06:33.549Z,76.70
2018-02-12T00:09:01.031Z,76.80
2018-02-12T00:11:28.493Z,76.80
2018-02-12T00:13:56.744Z,76.70
2018-02-12T00:16:24.250Z,76.70
2018-02-12T00:18:51.759Z,76.90
2018-02-12T00:21:19.211Z,77.10
2018-02-12T00:23:46.710Z,77.40
2018-02-12T00:26:14.180Z,77.40
2018-02-12T00:28:41.680Z,77.50
2018-02-12T00:31:09.124Z,77.50
2018-02-12T00:33:36.668Z,77.60
2018-02-12T00:36:04.147Z,77.60
2018-02-12T00:38:31.643Z,77.80
2018-02-12T00:40:59.105Z,77.80
2018-02-12T00:43:27.353Z,77.90
2018-02-12T00:45:54.828Z,77.90
2018-02-12T00:48:22.317Z,78.10
2018-02-12T00:50:49.819Z,78.10
2018-02-12T00:53:17.269Z,78.20
2018-02-12T00:55:44.724Z,78.10
2018-02-12T00:58:12.641Z,78.10
2018-02-12T01:00:40.905Z,78.10
2018-02-12T01:03:08.404Z,78.00
2018-02-12T01:05:35.885Z,78.00
2018-02-12T01:08:03.338Z,77.90
2018-02-12T01:10:31.587Z,78.00
2018-02-12T01:12:59.060Z,77.80
2018-02-12T01:15:26.529Z,78.00
2018-02-12T01:17:54.030Z,78.00
2018-02-12T01:20:21.477Z,77.90
2018-02-12T01:22:48.932Z,77.80
2018-02-12T01:25:16.404Z,77.80
2018-02-12T01:27:44.629Z,78.70
2018-02-12T01:30:12.141Z,77.90
2018-02-12T01:32:40.385Z,77.70
2018-02-12T01:35:07.861Z,77.70
2018-02-12T01:37:35.330Z,77.50
2018-02-12T01:40:02.772Z,77.60
2018-02-12T01:42:30.252Z,77.80
2018-02-12T01:44:58.468Z,77.90
2018-02-12T01:47:25.945Z,77.90
2018-02-12T01:50:05.488Z,77.80
2018-02-12T01:52:32.958Z,77.80
2018-02-12T01:55:00.412Z,77.80
2018-02-12T01:57:27.905Z,78.00
2018-02-12T01:59:56.197Z,78.20
2018-02-12T02:02:23.675Z,78.20
2018-02-12T02:04:51.132Z,78.20
2018-02-12T02:07:18.609Z,78.10
2018-02-12T02:09:46.076Z,78.10
2018-02-12T02:12:13.532Z,78.10
2018-02-12T02:14:40.991Z,78.10
2018-02-12T02:17:08.550Z,78.20
2018-02-12T02:19:36.044Z,78.30
2018-02-12T02:22:04.268Z,78.10
2018-02-12T02:24:31.778Z,78.20
2018-02-12T02:26:59.265Z,78.00
2018-02-12T02:29:26.741Z,77.50
2018-02-12T02:31:54.209Z,77.30
2018-02-12T02:34:21.733Z,77.20
2018-02-12T02:36:49.971Z,77.30
2018-02-12T02:39:17.425Z,77.20
2018-02-12T02:41:44.901Z,77.30
2018-02-12T02:44:12.382Z,77.10
2018-02-12T02:46:39.910Z,77.00
2018-02-12T02:49:07.381Z,77.10
2018-02-12T02:51:35.629Z,77.60
2018-02-12T02:54:03.096Z,77.10
2018-02-12T02:56:30.605Z,77.30
2018-02-12T02:58:58.098Z,77.20
2018-02-12T03:01:25.563Z,77.30
2018-02-12T03:03:53.048Z,77.30
2018-02-12T03:06:20.529Z,77.50
2018-02-12T03:08:48.025Z,77.70
2018-02-12T03:11:15.484Z,77.90
2018-02-12T03:13:42.965Z,77.80
2018-02-12T03:16:10.481Z,77.80
2018-02-12T03:18:37.968Z,77.60
2018-02-12T03:21:05.433Z,77.60
2018-02-12T03:23:32.914Z,78.30
2018-02-12T03:26:00.393Z,77.50
2018-02-12T03:28:28.014Z,77.50
2018-02-12T03:30:55.529Z,77.60
2018-02-12T03:33:23.030Z,77.60
2018-02-12T03:35:50.523Z,77.80
2018-02-12T03:38:17.982Z,77.80
2018-02-12T03:40:46.194Z,78.00
2018-02-12T03:43:13.680Z,77.90
2018-02-12T03:48:38.984Z,78.00
2018-02-12T03:51:06.457Z,78.00
2018-02-12T03:53:33.936Z,77.90
2018-02-12T03:56:01.402Z,77.90
2018-02-12T03:58:29.112Z,78.00
2018-02-12T04:00:56.590Z,78.00
2018-02-12T04:03:24.072Z,78.10
2018-02-12T04:05:51.516Z,78.10
2018-02-12T04:08:19.005Z,78.30
2018-02-12T04:10:46.854Z,78.50
2018-02-12T04:13:14.690Z,78.50
2018-02-12T04:15:42.261Z,78.60
2018-02-12T04:18:09.720Z,78.70
2018-02-12T04:20:37.189Z,78.70
2018-02-12T04:23:04.664Z,78.70
2018-02-12T04:25:32.124Z,78.70
2018-02-12T04:27:59.601Z,78.60
2018-02-12T04:30:27.049Z,78.50
2018-02-12T04:32:54.546Z,78.30
2018-02-12T04:35:22.040Z,78.10
2018-02-12T04:37:49.531Z,78.10
2018-02-12T04:40:17.004Z,77.90
2018-02-12T04:42:45.246Z,78.30
2018-02-12T04:45:12.733Z,78.30
2018-02-12T04:47:40.972Z,78.50
2018-02-12T04:50:08.485Z,78.50
2018-02-12T04:52:36.302Z,78.50
2018-02-12T04:55:04.581Z,78.60
2018-02-12T04:57:32.044Z,78.50
2018-02-12T04:59:59.528Z,78.70
2018-02-12T05:02:27.751Z,78.80
2018-02-12T05:04:55.210Z,78.70
2018-02-12T05:07:23.449Z,78.90
2018-02-12T05:09:51.034Z,78.70
2018-02-12T05:12:18.509Z,78.60
2018-02-12T05:14:46.004Z,78.50
2018-02-12T05:17:14.230Z,78.20
2018-02-12T05:19:41.686Z,78.20
2018-02-12T05:22:09.184Z,78.00
2018-02-12T05:24:36.633Z,78.00
2018-02-12T05:27:04.092Z,78.20
2018-02-12T05:29:31.572Z,78.10
2018-02-12T05:31:59.017Z,78.00
2018-02-12T05:34:26.508Z,78.10
2018-02-12T05:36:54.004Z,78.20
2018-02-12T05:39:21.528Z,78.30
2018-02-12T05:41:49.016Z,78.20
2018-02-12T05:44:16.493Z,78.00
2018-02-12T05:46:43.964Z,77.80
2018-02-12T05:49:11.423Z,77.90
2018-02-12T05:51:38.906Z,77.80
2018-02-12T05:54:06.377Z,77.70
2018-02-12T05:56:33.873Z,77.50
2018-02-12T05:59:01.368Z,77.40
2018-02-12T06:01:28.816Z,77.30
2018-02-12T06:03:56.301Z,77.30
2018-02-12T06:06:24.642Z,77.20
2018-02-12T06:08:52.109Z,77.20
2018-02-12T06:11:19.595Z,77.20
2018-02-12T06:13:47.838Z,77.30
2018-02-12T06:16:15.305Z,77.30
2018-02-12T06:18:42.788Z,77.10
2018-02-12T06:21:10.270Z,77.10
2018-02-12T06:23:37.753Z,77.10
2018-02-12T06:26:05.222Z,77.00
2018-02-12T06:28:32.718Z,76.90
2018-02-12T06:31:00.965Z,76.90
2018-02-12T06:33:28.434Z,76.80
2018-02-12T06:35:55.943Z,76.90
2018-02-12T06:38:23.393Z,76.90
2018-02-12T06:40:50.885Z,76.90
2018-02-12T06:43:18.378Z,76.90
2018-02-12T06:45:45.912Z,76.90
2018-02-12T06:48:13.405Z,76.80
2018-02-12T06:50:41.645Z,77.00
2018-02-12T06:53:09.126Z,76.90
2018-02-12T06:55:36.592Z,76.90
2018-02-12T06:58:04.102Z,77.00
2018-02-12T07:00:31.567Z,77.10
2018-02-12T07:02:59.054Z,77.10
2018-02-12T07:05:26.559Z,77.20
2018-02-12T07:07:54.041Z,77.20
2018-02-12T07:10:21.674Z,77.30
2018-02-12T07:12:49.121Z,77.30
2018-02-12T07:15:17.349Z,77.30
2018-02-12T07:17:44.826Z,77.30
2018-02-12T07:20:12.288Z,77.30
2018-02-12T07:22:39.771Z,77.30
2018-02-12T07:25:07.228Z,77.30
2018-02-12T07:27:34.705Z,77.30
2018-02-12T07:30:02.234Z,77.30
2018-02-12T07:32:30.481Z,77.40
2018-02-12T07:34:57.953Z,77.40
2018-02-12T07:37:25.736Z,77.30
2018-02-12T07:39:53.386Z,77.30
2018-02-12T07:42:21.038Z,77.30
2018-02-12T07:44:48.565Z,77.30
2018-02-12T07:47:16.315Z,77.20
2018-02-12T07:49:43.809Z,77.10
2018-02-12T07:52:11.516Z,77.20
2018-02-12T07:54:39.033Z,77.10
2018-02-12T07:57:06.529Z,77.00
2018-02-12T07:59:34.865Z,76.80
2018-02-12T08:02:02.612Z,76.80
2018-02-12T08:04:30.289Z,76.60
2018-02-12T08:06:57.757Z,77.30
2018-02-12T08:09:25.273Z,76.30
2018-02-12T08:11:52.775Z,76.30
2018-02-12T08:14:20.247Z,76.30
2018-02-12T08:16:48.321Z,76.20
2018-02-12T08:19:15.804Z,76.20
2018-02-12T08:21:44.039Z,76.00
2018-02-12T08:24:11.508Z,76.00
2018-02-12T08:26:39.234Z,75.90
2018-02-12T08:29:06.970Z,75.90
2018-02-12T08:31:35.320Z,76.10
2018-02-12T08:34:03.092Z,76.00
2018-02-12T08:36:30.570Z,75.90
2018-02-12T08:38:58.054Z,75.90
2018-02-12T08:41:25.773Z,75.80
2018-02-12T08:43:53.614Z,75.80
2018-02-12T08:46:21.438Z,75.70
2018-02-12T08:48:48.896Z,75.60
2018-02-12T08:51:16.886Z,75.70
2018-02-12T08:53:44.508Z,75.80
2018-02-12T08:56:12.014Z,75.80
2018-02-12T08:58:39.594Z,75.90
2018-02-12T09:01:07.246Z,75.90
2018-02-12T09:03:34.721Z,75.90
2018-02-12T09:06:02.397Z,75.90
2018-02-12T09:08:30.765Z,76.10
2018-02-12T09:10:58.630Z,76.10
2018-02-12T09:13:26.130Z,75.70
2018-02-12T09:15:54.424Z,74.80
2018-02-12T09:18:22.131Z,74.70
2018-02-12T09:20:49.945Z,74.40
2018-02-12T09:23:18.061Z,74.10
2018-02-12T09:25:45.834Z,74.00
2018-02-12T09:28:15.346Z,73.70
2018-02-12T09:30:43.069Z,73.70
2018-02-12T09:33:10.705Z,73.60
2018-02-12T09:35:38.208Z,73.80
2018-02-12T09:38:05.991Z,74.00
2018-02-12T09:40:33.640Z,74.20
2018-02-12T09:43:01.227Z,74.10
2018-02-12T09:45:28.898Z,74.10
2018-02-12T09:47:56.524Z,73.90
2018-02-12T09:50:24.893Z,73.60
2018-02-12T09:52:52.474Z,73.60
2018-02-12T09:55:20.158Z,73.60
2018-02-12T09:57:48.574Z,72.90
2018-02-12T10:00:16.255Z,72.90
2018-02-12T10:02:43.920Z,72.40
2018-02-12T10:05:12.442Z,72.00
2018-02-12T10:07:40.167Z,72.00
2018-02-12T10:10:07.921Z,72.10
2018-02-12T10:12:35.486Z,72.00
2018-02-12T10:15:03.117Z,72.00
2018-02-12T10:17:30.629Z,71.60
2018-02-12T10:19:58.268Z,71.20
2018-02-12T10:22:25.762Z,71.30
2018-02-12T10:24:53.517Z,71.40
2018-02-12T10:27:21.018Z,71.50
2018-02-12T10:29:48.614Z,71.00
2018-02-12T10:32:16.188Z,70.80
2018-02-12T10:34:43.697Z,70.90
2018-02-12T10:37:11.951Z,69.90
2018-02-12T10:39:39.527Z,69.80
2018-02-12T10:42:07.071Z,69.20
2018-02-12T10:44:34.524Z,68.90
2018-02-12T10:47:02.001Z,68.60
2018-02-12T10:49:29.780Z,68.20
2018-02-12T10:51:57.598Z,68.10
2018-02-12T10:54:25.307Z,68.30
2018-02-12T10:56:52.872Z,67.60
2018-02-12T10:59:21.278Z,67.30
2018-02-12T11:01:48.924Z,67.30
2018-02-12T11:04:16.865Z,66.80
2018-02-12T11:06:44.566Z,65.50
2018-02-12T11:09:13.081Z,64.00
2018-02-12T11:11:40.738Z,64.00
2018-02-12T11:14:08.550Z,63.90
2018-02-12T11:16:36.404Z,63.80
2018-02-12T11:19:04.353Z,63.20
2018-02-12T11:21:32.088Z,62.70
2018-02-12T11:23:59.750Z,61.60
2018-02-12T11:26:27.470Z,62.00
2018-02-12T11:28:55.115Z,61.80
2018-02-12T11:31:22.794Z,61.60
2018-02-12T11:33:50.776Z,61.30
2018-02-12T11:36:18.581Z,61.20
2018-02-12T11:38:46.291Z,61.30
2018-02-12T11:41:13.910Z,61.50
2018-02-12T11:43:41.683Z,61.50
2018-02-12T11:46:09.552Z,60.70
2018-02-12T11:48:37.295Z,60.30
2018-02-12T11:51:05.008Z,59.90
2018-02-12T11:53:32.895Z,59.90
2018-02-12T11:56:00.668Z,60.20
2018-02-12T11:58:29.225Z,59.70
2018-02-12T12:00:56.986Z,59.70
2018-02-12T12:03:24.632Z,59.30
2018-02-12T12:05:52.628Z,59.40
2018-02-12T12:08:20.243Z,59.50
2018-02-12T12:10:47.979Z,59.90
2018-02-12T12:13:16.492Z,59.30
2018-02-12T12:15:44.074Z,59.30
2018-02-12T12:18:11.772Z,59.00
2018-02-12T12:20:39.366Z,59.10
2018-02-12T12:23:07.201Z,59.30
2018-02-12T12:25:34.845Z,59.50
2018-02-12T12:28:02.483Z,59.30
2018-02-12T12:30:30.215Z,58.40
2018-02-12T12:32:58.795Z,57.50
2018-02-12T12:35:26.488Z,57.50
2018-02-12T12:37:54.324Z,57.30
2018-02-12T12:40:21.985Z,57.10
2018-02-12T12:42:49.818Z,56.70
2018-02-12T12:45:17.435Z,56.50
2018-02-12T12:47:45.244Z,56.40
2018-02-12T12:50:13.010Z,56.40
2018-02-12T12:52:40.785Z,57.00
2018-02-12T12:55:08.392Z,56.90
2018-02-12T12:57:36.175Z,56.00
2018-02-12T13:00:03.895Z,55.80
2018-02-12T13:02:32.512Z,55.40
2018-02-12T13:05:00.071Z,55.40
2018-02-12T13:07:27.669Z,55.20
2018-02-12T13:09:55.386Z,54.80
2018-02-12T13:12:23.047Z,54.90
2018-02-12T13:14:50.771Z,55.20
2018-02-12T13:17:18.604Z,55.50
2018-02-12T13:19:46.409Z,55.90
2018-02-12T13:22:14.012Z,56.20
2018-02-12T13:24:41.798Z,56.70
2018-02-12T13:27:09.408Z,57.40
2018-02-12T13:29:37.082Z,57.60
2018-02-12T13:32:04.701Z,57.90
2018-02-12T13:34:32.402Z,58.30
2018-02-12T13:37:00.215Z,58.40
2018-02-12T13:39:27.946Z,58.40
2018-02-12T13:41:55.543Z,58.60
2018-02-12T13:46:58.378Z,58.90
2018-02-12T13:49:27.048Z,59.00
2018-02-12T13:51:55.931Z,58.90
2018-02-12T13:54:23.567Z,59.10
2018-02-12T13:56:52.073Z,59.10
2018-02-12T13:59:19.775Z,59.10
2018-02-12T14:01:47.434Z,59.20
2018-02-12T14:04:15.192Z,59.40
2018-02-12T14:06:42.949Z,59.30
2018-02-12T14:09:10.625Z,59.20
2018-02-12T14:11:38.296Z,58.90
2018-02-12T14:14:05.980Z,58.50
2018-02-12T14:16:33.588Z,58.70
2018-02-12T14:19:01.235Z,59.00
2018-02-12T14:21:28.986Z,59.30
2018-02-12T14:23:56.694Z,61.30
2018-02-12T14:26:24.238Z,58.80
2018-02-12T14:28:51.854Z,57.40
2018-02-12T14:31:20.477Z,56.90
2018-02-12T14:33:48.339Z,56.90
2018-02-12T14:38:49.764Z,57.40
2018-02-12T14:41:18.316Z,57.90
2018-02-12T14:43:45.978Z,57.90
2018-02-12T14:46:13.532Z,59.40
2018-02-12T14:48:41.326Z,57.40
2018-02-12T14:51:09.689Z,54.20
2018-02-12T14:53:37.420Z,54.10
2018-02-12T14:56:05.042Z,54.10
2018-02-12T14:58:32.850Z,54.40
2018-02-12T15:01:00.501Z,54.90
2018-02-12T15:03:28.401Z,54.80
2018-02-12T15:05:56.218Z,54.60
2018-02-12T15:08:23.901Z,54.20
2018-02-12T15:10:51.717Z,55.30
2018-02-12T15:13:19.497Z,53.00
2018-02-12T15:15:47.957Z,53.00
2018-02-12T15:18:15.718Z,52.90
2018-02-12T15:20:43.448Z,53.60
2018-02-12T15:23:11.149Z,54.10
2018-02-12T15:25:38.956Z,54.60
2018-02-12T15:28:06.592Z,54.40
2018-02-12T15:30:35.203Z,53.00
2018-02-12T15:33:02.862Z,52.90
2018-02-12T15:35:30.643Z,52.60
2018-02-12T15:37:58.269Z,53.10
2018-02-12T15:40:26.817Z,53.80
2018-02-12T15:42:54.547Z,53.70
2018-02-12T15:45:22.189Z,53.70
2018-02-12T15:47:50.521Z,52.40
2018-02-12T15:50:18.280Z,52.40
2018-02-12T15:52:46.089Z,52.70
2018-02-12T15:55:14.512Z,52.50
2018-02-12T15:57:42.132Z,52.50
2018-02-12T16:00:09.901Z,51.90
2018-02-12T16:02:38.330Z,51.50
2018-02-12T16:05:06.103Z,51.50
2018-02-12T16:07:33.992Z,51.60
2018-02-12T16:10:01.559Z,51.50
2018-02-12T16:12:29.262Z,52.00
2018-02-12T16:14:56.900Z,52.40
2018-02-12T16:17:25.249Z,54.00
2018-02-12T16:19:52.944Z,54.00
2018-02-12T16:22:20.550Z,54.30
2018-02-12T16:24:48.893Z,54.60
2018-02-12T16:27:16.604Z,55.10
2018-02-12T16:29:45.114Z,55.90
2018-02-12T16:32:13.841Z,56.40
2018-02-12T16:34:41.561Z,56.40
2018-02-12T16:37:09.212Z,56.60
2018-02-12T16:39:37.030Z,57.00
2018-02-12T16:42:04.785Z,57.30
2018-02-12T16:44:32.606Z,57.60
2018-02-12T16:47:00.319Z,57.90
2018-02-12T16:49:28.026Z,58.10
2018-02-12T16:51:55.795Z,58.30
2018-02-12T16:54:23.575Z,58.60
2018-02-12T16:56:51.272Z,58.80
2018-02-12T16:59:19.868Z,59.30
2018-02-12T17:01:47.713Z,59.30
2018-02-12T17:04:15.380Z,59.40
2018-02-12T17:06:43.055Z,59.60
2018-02-12T17:09:10.957Z,59.70
2018-02-12T17:11:38.593Z,59.90
2018-02-12T17:14:06.461Z,59.90
2018-02-12T17:16:34.301Z,60.10
2018-02-12T17:19:02.392Z,60.30
2018-02-12T17:21:31.021Z,60.70
2018-02-12T17:23:58.800Z,60.70
2018-02-12T17:26:26.428Z,60.70
2018-02-12T17:28:54.155Z,60.80
2018-02-12T17:31:22.696Z,61.00
2018-02-12T17:33:50.551Z,60.90
2018-02-12T17:36:18.254Z,60.80
2018-02-12T17:38:46.061Z,60.70
2018-02-12T17:41:14.139Z,60.80
2018-02-12T17:43:41.953Z,60.80
2018-02-12T17:46:09.728Z,61.80
2018-02-12T17:48:37.403Z,61.00
2018-02-12T17:51:05.996Z,61.20
2018-02-12T17:53:33.834Z,61.20
2018-02-12T17:56:02.004Z,61.30
2018-02-12T17:58:29.868Z,61.50
2018-02-12T18:00:57.611Z,61.60
2018-02-12T18:03:25.755Z,61.80
2018-02-12T18:05:53.649Z,62.00
2018-02-12T18:08:21.417Z,62.10
2018-02-12T18:10:49.018Z,62.40
2018-02-12T18:13:17.746Z,62.70
2018-02-12T18:15:45.664Z,62.70
2018-02-12T18:18:14.445Z,63.10
2018-02-12T18:20:42.789Z,63.00
2018-02-12T18:23:10.553Z,63.10
2018-02-12T18:25:38.406Z,63.30
2018-02-12T18:28:06.189Z,63.40
2018-02-12T18:30:34.126Z,63.60
2018-02-12T18:33:03.068Z,63.80
2018-02-12T18:35:30.774Z,63.80
2018-02-12T18:37:58.742Z,63.90
2018-02-12T18:40:26.389Z,64.00
2018-02-12T18:42:54.144Z,64.10
2018-02-12T18:45:21.909Z,64.20
2018-02-12T18:47:49.845Z,64.30
2018-02-12T18:50:17.582Z,64.40
2018-02-12T18:52:45.422Z,64.50
2018-02-12T18:55:13.100Z,64.50
2018-02-12T18:57:40.879Z,64.60
2018-02-12T19:00:08.616Z,64.70
2018-02-12T19:02:36.371Z,64.80
2018-02-12T19:05:04.850Z,65.10
2018-02-12T19:07:32.724Z,65.00
2018-02-12T19:10:00.662Z,65.10
2018-02-12T19:12:28.339Z,65.40
2018-02-12T19:14:56.024Z,65.50
2018-02-12T19:17:23.780Z,65.50
2018-02-12T19:19:51.528Z,65.60
2018-02-12T19:22:19.235Z,65.70
2018-02-12T19:24:47.038Z,65.70
2018-02-12T19:27:14.741Z,65.80
2018-02-12T19:29:42.450Z,66.00
2018-02-12T19:32:10.255Z,66.00
2018-02-12T19:34:37.953Z,65.90
2018-02-12T19:37:05.697Z,66.00
2018-02-12T19:39:33.483Z,66.00
2018-02-12T19:42:01.263Z,66.10
2018-02-12T19:44:29.796Z,66.40
2018-02-12T19:46:58.073Z,66.40
2018-02-12T19:49:25.871Z,66.50
2018-02-12T19:51:53.666Z,66.60
2018-02-12T19:54:21.559Z,66.70
2018-02-12T19:56:49.379Z,66.80
2018-02-12T19:59:18.099Z,67.00
2018-02-12T20:01:46.368Z,66.90
2018-02-12T20:04:14.310Z,67.00
2018-02-12T20:06:42.550Z,67.10
2018-02-12T20:09:10.534Z,67.20
2018-02-12T20:11:39.146Z,67.20
2018-02-12T20:14:07.067Z,67.20
2018-02-12T20:16:34.905Z,67.30
2018-02-12T20:19:02.874Z,67.30
2018-02-12T20:21:30.731Z,67.30
2018-02-12T20:23:58.455Z,67.40
2018-02-12T20:26:26.201Z,67.50
2018-02-12T20:28:54.065Z,67.50
2018-02-12T20:31:22.113Z,67.50
2018-02-12T20:33:49.984Z,67.60
2018-02-12T20:36:17.732Z,67.60
2018-02-12T20:38:45.707Z,67.70
2018-02-12T20:41:13.786Z,67.60
2018-02-12T20:43:42.730Z,67.90
2018-02-12T20:46:10.691Z,67.90
2018-02-12T20:48:38.523Z,68.00
2018-02-12T20:51:06.190Z,68.10
2018-02-12T20:53:34.223Z,68.20
2018-02-12T20:56:01.956Z,68.20
2018-02-12T20:58:29.691Z,68.30
2018-02-12T21:00:57.405Z,68.30
2018-02-12T21:03:25.246Z,68.40
2018-02-12T21:05:52.986Z,68.40
2018-02-12T21:08:20.704Z,68.50
2018-02-12T21:10:48.232Z,68.40
2018-02-12T21:13:15.876Z,69.30
2018-02-12T21:15:43.349Z,68.40
2018-02-12T21:18:10.842Z,68.40
2018-02-12T21:20:39.101Z,68.40
2018-02-12T21:23:06.569Z,68.70
2018-02-12T21:25:34.063Z,68.60
2018-02-12T21:28:01.559Z,68.70
2018-02-12T21:30:29.013Z,68.70
2018-02-12T21:32:56.509Z,68.70
2018-02-12T21:35:24.190Z,68.70
2018-02-12T21:37:52.802Z,68.90
2018-02-12T21:40:20.480Z,68.80
2018-02-12T21:42:48.235Z,68.90
2018-02-12T21:45:15.906Z,68.90
2018-02-12T21:47:43.658Z,68.90
2018-02-12T21:50:11.344Z,68.90
2018-02-12T21:52:39.816Z,69.00
2018-02-12T21:55:07.656Z,69.00
2018-02-12T21:57:35.325Z,69.00
2018-02-12T22:00:02.944Z,69.10
2018-02-12T22:02:30.604Z,69.10
2018-02-12T22:04:58.302Z,69.10
2018-02-12T22:07:25.883Z,69.10
2018-02-12T22:09:53.546Z,70.00
2018-02-12T22:12:21.211Z,69.20
2018-02-12T22:14:48.899Z,69.20
2018-02-12T22:17:16.722Z,69.30
2018-02-12T22:19:44.490Z,69.20
2018-02-12T22:22:12.166Z,69.30
2018-02-12T22:24:39.910Z,69.30
2018-02-12T22:27:07.662Z,69.30
2018-02-12T22:29:35.320Z,69.40
2018-02-12T22:32:03.130Z,69.40
2018-02-12T22:34:30.871Z,69.40
2018-02-12T22:36:58.504Z,69.20
2018-02-12T22:39:26.213Z,69.30
2018-02-12T22:41:53.849Z,69.30
2018-02-12T22:44:21.463Z,69.20
2018-02-12T22:46:49.257Z,69.20
2018-02-12T22:49:16.963Z,69.20
2018-02-12T22:51:44.698Z,69.70
2018-02-12T22:54:13.004Z,69.20
2018-02-12T22:56:40.581Z,69.20
2018-02-12T22:59:08.274Z,69.10
2018-02-12T23:01:35.994Z,69.10
2018-02-12T23:04:03.623Z,69.00
2018-02-12T23:06:31.248Z,69.00
2018-02-12T23:08:59.001Z,69.00
2018-02-12T23:11:26.762Z,69.00
2018-02-12T23:13:54.434Z,69.00
2018-02-12T23:16:22.153Z,69.00
2018-02-12T23:18:50.634Z,69.20
2018-02-12T23:21:19.118Z,69.30
2018-02-12T23:23:46.893Z,69.20
2018-02-12T23:26:14.602Z,69.40
2018-02-12T23:28:42.253Z,69.40
2018-02-12T23:31:09.941Z,69.40
2018-02-12T23:33:37.730Z,69.40
2018-02-12T23:36:05.403Z,69.60
2018-02-12T23:38:33.921Z,69.70
2018-02-12T23:41:01.549Z,69.50
2018-02-12T23:43:29.948Z,69.80
2018-02-12T23:45:58.555Z,69.80
2018-02-12T23:48:26.226Z,69.80
2018-02-12T23:50:53.863Z,69.80
2018-02-12T23:53:21.585Z,69.80
2018-02-12T23:55:50.011Z,69.90
2018-02-12T23:58:17.771Z,69.90
